createdAt,value
2019-03-31T00:01:49.976Z,96181.61
2019-03-31T00:04:16.116Z,96179.95
2019-03-31T00:06:42.136Z,96179.95
2019-03-31T00:09:08.271Z,96180.12
2019-03-31T00:11:34.396Z,96174.08
2019-03-31T00:14:00.562Z,96174.40
2019-03-31T00:16:26.679Z,96177.02
2019-03-31T00:18:52.817Z,96169.80
2019-03-31T00:21:18.933Z,96166.67
2019-03-31T00:23:45.029Z,96170.45
2019-03-31T00:26:11.162Z,96163.39
2019-03-31T00:28:37.292Z,96159.91
2019-03-31T00:31:03.936Z,96155.64
2019-03-31T00:33:30.056Z,96158.58
2019-03-31T00:35:56.181Z,96159.37
2019-03-31T00:38:22.319Z,96158.70
2019-03-31T00:40:48.352Z,96157.91
2019-03-31T00:43:14.478Z,96165.72
2019-03-31T00:45:40.662Z,96161.48
2019-03-31T00:48:06.784Z,96162.78
2019-03-31T00:50:32.900Z,96158.35
2019-03-31T00:52:58.931Z,96159.53
2019-03-31T00:55:25.058Z,96159.81
2019-03-31T00:57:51.219Z,96154.23
2019-03-31T01:00:39.239Z,96155.19
2019-03-31T01:03:05.993Z,96156.14
2019-03-31T01:05:32.549Z,96156.45
2019-03-31T01:07:59.100Z,96151.03
2019-03-31T01:10:25.633Z,96154.00
2019-03-31T01:12:51.954Z,96153.33
2019-03-31T01:15:21.795Z,96157.44
2019-03-31T01:17:48.121Z,96155.11
2019-03-31T01:20:14.266Z,96151.85
2019-03-31T01:22:40.388Z,96151.34
2019-03-31T01:25:07.733Z,96146.91
2019-03-31T01:27:34.073Z,96150.63
2019-03-31T01:30:00.320Z,96150.11
2019-03-31T01:32:26.435Z,96150.27
2019-03-31T01:34:52.567Z,96140.95
2019-03-31T01:37:20.329Z,96147.13
2019-03-31T01:39:46.672Z,96142.86
2019-03-31T01:42:12.791Z,96136.31
2019-03-31T01:44:38.827Z,96135.37
2019-03-31T01:47:06.869Z,96134.17
2019-03-31T01:49:33.141Z,96135.92
2019-03-31T01:51:59.302Z,96140.16
2019-03-31T01:54:25.494Z,96139.52
2019-03-31T01:56:51.588Z,96140.83
2019-03-31T01:59:17.752Z,96137.53
2019-03-31T02:01:44.285Z,96137.17
2019-03-31T02:04:10.444Z,96130.95
2019-03-31T02:06:36.617Z,96133.52
2019-03-31T02:09:04.642Z,96128.61
2019-03-31T02:11:30.784Z,96128.28
2019-03-31T02:13:56.915Z,96127.61
2019-03-31T02:16:23.142Z,96123.33
2019-03-31T02:18:49.318Z,96124.94
2019-03-31T02:21:15.440Z,96123.44
2019-03-31T02:23:41.515Z,96123.39
2019-03-31T02:26:07.652Z,96115.06
2019-03-31T02:28:33.810Z,96119.63
2019-03-31T02:31:00.347Z,96116.22
2019-03-31T02:33:26.425Z,96111.14
2019-03-31T02:35:52.569Z,96103.32
2019-03-31T02:38:18.813Z,96112.14
2019-03-31T02:40:44.982Z,96112.25
2019-03-31T02:43:11.116Z,96108.28
2019-03-31T02:45:37.251Z,96110.38
2019-03-31T02:48:03.476Z,96109.89
2019-03-31T02:50:44.952Z,96103.48
2019-03-31T02:53:11.073Z,96104.14
2019-03-31T02:55:37.849Z,96102.95
2019-03-31T02:58:04.468Z,96096.58
2019-03-31T03:00:30.817Z,96101.95
2019-03-31T03:02:57.450Z,96100.63
2019-03-31T03:05:23.923Z,96098.19
2019-03-31T03:07:50.518Z,96097.09
2019-03-31T03:10:19.027Z,96093.95
2019-03-31T03:13:11.581Z,96094.58
2019-03-31T03:15:56.163Z,96089.16
2019-03-31T03:18:22.282Z,96093.21
2019-03-31T03:20:48.351Z,96096.25
2019-03-31T03:23:14.476Z,96094.92
2019-03-31T03:25:55.227Z,96092.11
2019-03-31T03:28:08.718Z,96095.20
2019-03-31T03:30:34.873Z,96092.87
2019-03-31T03:33:14.515Z,96097.63
2019-03-31T03:35:29.148Z,96098.27
2019-03-31T03:37:55.325Z,96096.63
2019-03-31T03:40:21.404Z,96101.65
2019-03-31T03:42:47.549Z,96100.80
2019-03-31T03:45:13.707Z,96107.12
2019-03-31T03:47:39.845Z,96102.41
2019-03-31T03:50:05.962Z,96102.78
2019-03-31T03:52:32.043Z,96100.20
2019-03-31T03:54:58.162Z,96103.95
2019-03-31T03:57:24.334Z,96103.84
2019-03-31T03:59:50.359Z,96101.85
2019-03-31T04:02:16.481Z,96104.99
2019-03-31T04:04:42.721Z,96101.17
2019-03-31T04:07:08.843Z,96102.43
2019-03-31T04:09:34.976Z,96104.03
2019-03-31T04:12:01.107Z,96093.55
2019-03-31T04:14:27.234Z,96087.80
2019-03-31T04:16:53.270Z,96092.02
2019-03-31T04:19:19.400Z,96090.53
2019-03-31T04:21:45.533Z,96101.91
2019-03-31T04:24:11.575Z,96098.00
2019-03-31T04:26:37.702Z,96097.73
2019-03-31T04:29:03.843Z,96095.45
2019-03-31T04:31:30.013Z,96099.36
2019-03-31T04:33:56.150Z,96097.38
2019-03-31T04:36:22.276Z,96099.98
2019-03-31T04:38:48.405Z,96102.75
2019-03-31T04:41:14.538Z,96097.36
2019-03-31T04:43:40.664Z,96097.47
2019-03-31T04:46:06.779Z,96090.63
2019-03-31T04:48:32.907Z,96093.70
2019-03-31T04:50:58.959Z,96093.44
2019-03-31T04:53:25.106Z,96095.91
2019-03-31T04:55:51.277Z,96088.88
2019-03-31T04:58:17.426Z,96098.00
2019-03-31T05:00:43.554Z,96094.09
2019-03-31T05:03:09.598Z,96093.77
2019-03-31T05:05:35.728Z,96101.30
2019-03-31T05:08:01.747Z,96099.36
2019-03-31T05:10:27.925Z,96102.14
2019-03-31T05:12:54.046Z,96103.19
2019-03-31T05:15:20.115Z,96102.41
2019-03-31T05:17:46.146Z,96102.73
2019-03-31T05:20:12.317Z,96099.14
2019-03-31T05:22:38.476Z,96105.24
2019-03-31T05:25:05.003Z,96101.50
2019-03-31T05:27:31.215Z,96100.88
2019-03-31T05:29:57.346Z,96099.92
2019-03-31T05:32:23.510Z,96104.99
2019-03-31T05:34:49.643Z,96101.92
2019-03-31T05:37:15.809Z,96099.01
2019-03-31T05:39:41.948Z,96094.16
2019-03-31T05:42:08.066Z,96093.06
2019-03-31T05:44:34.185Z,96096.47
2019-03-31T05:47:00.321Z,96102.57
2019-03-31T05:49:26.477Z,96101.11
2019-03-31T05:51:52.593Z,96099.34
2019-03-31T05:54:18.646Z,96101.53
2019-03-31T05:56:44.764Z,96101.22
2019-03-31T05:59:10.927Z,96100.28
2019-03-31T06:01:36.958Z,96094.95
2019-03-31T06:04:03.178Z,96101.34
2019-03-31T06:06:29.362Z,96094.17
2019-03-31T06:08:55.611Z,96090.93
2019-03-31T06:11:21.659Z,96084.13
2019-03-31T06:13:47.894Z,96080.09
2019-03-31T06:16:14.025Z,96084.22
2019-03-31T06:18:40.146Z,96079.00
2019-03-31T06:21:06.294Z,96080.54
2019-03-31T06:23:32.473Z,96076.98
2019-03-31T06:25:59.153Z,96082.05
2019-03-31T06:28:25.289Z,96077.84
2019-03-31T06:30:51.510Z,96075.27
2019-03-31T06:33:17.657Z,96081.05
2019-03-31T06:35:43.823Z,96082.23
2019-03-31T06:38:10.053Z,96083.25
2019-03-31T06:40:36.214Z,96081.30
2019-03-31T06:43:02.426Z,96085.25
2019-03-31T06:45:28.668Z,96073.18
2019-03-31T06:47:54.903Z,96076.17
2019-03-31T06:50:21.157Z,96083.72
2019-03-31T06:52:47.336Z,96079.81
2019-03-31T06:55:15.396Z,96087.67
2019-03-31T06:57:41.651Z,96091.66
2019-03-31T07:00:08.153Z,96085.43
2019-03-31T07:02:34.269Z,96083.50
2019-03-31T07:05:01.802Z,96090.07
2019-03-31T07:07:28.263Z,96088.94
2019-03-31T07:09:54.522Z,96086.80
2019-03-31T07:12:20.769Z,96084.03
2019-03-31T07:14:47.071Z,96084.51
2019-03-31T07:17:13.360Z,96077.63
2019-03-31T07:19:39.601Z,96072.37
2019-03-31T07:22:05.720Z,96065.34
2019-03-31T07:24:31.980Z,96074.33
2019-03-31T07:26:58.020Z,96075.45
2019-03-31T07:29:24.076Z,96070.01
2019-03-31T07:31:50.414Z,96071.77
2019-03-31T07:34:16.638Z,96071.59
2019-03-31T07:36:42.760Z,96062.69
2019-03-31T07:39:09.316Z,96063.29
2019-03-31T07:41:35.604Z,96056.33
2019-03-31T07:44:01.849Z,96061.20
2019-03-31T07:46:28.092Z,96058.45
2019-03-31T07:48:54.244Z,96060.21
2019-03-31T07:51:20.384Z,96051.02
2019-03-31T07:53:46.615Z,96051.47
2019-03-31T07:56:16.139Z,96050.72
2019-03-31T07:58:42.019Z,96049.97
2019-03-31T08:01:08.258Z,96052.80
2019-03-31T08:03:34.505Z,96043.30
2019-03-31T08:06:00.630Z,96044.64
2019-03-31T08:08:26.897Z,96039.45
2019-03-31T08:10:53.019Z,96038.98
2019-03-31T08:13:19.146Z,96032.13
2019-03-31T08:15:45.390Z,96036.04
2019-03-31T08:18:11.558Z,96025.97
2019-03-31T08:20:37.738Z,96030.83
2019-03-31T08:23:09.358Z,96028.94
2019-03-31T08:25:35.515Z,96023.47
2019-03-31T08:28:05.026Z,96025.21
2019-03-31T08:30:31.112Z,96024.23
2019-03-31T08:32:57.272Z,96018.39
2019-03-31T08:35:23.494Z,96020.79
2019-03-31T08:37:49.649Z,96019.67
2019-03-31T08:40:18.392Z,96005.28
2019-03-31T08:42:44.511Z,96008.84
2019-03-31T08:45:10.735Z,96009.40
2019-03-31T08:47:36.863Z,96008.38
2019-03-31T08:50:05.346Z,96002.17
2019-03-31T08:52:31.454Z,96000.94
2019-03-31T08:54:57.600Z,95996.67
2019-03-31T08:57:23.723Z,95993.02
2019-03-31T08:59:49.786Z,95989.83
2019-03-31T09:02:23.488Z,95983.48
2019-03-31T09:04:49.527Z,95980.83
2019-03-31T09:07:15.680Z,95992.61
2019-03-31T09:09:41.807Z,95979.30
2019-03-31T09:12:07.988Z,95983.91
2019-03-31T09:14:34.157Z,95981.77
2019-03-31T09:17:00.271Z,95983.87
2019-03-31T09:19:26.496Z,95985.06
2019-03-31T09:21:53.735Z,95977.37
2019-03-31T09:24:19.872Z,95976.20
2019-03-31T09:26:46.034Z,95976.06
2019-03-31T09:29:12.182Z,95972.63
2019-03-31T09:31:38.302Z,95971.92
2019-03-31T09:34:04.488Z,95971.45
2019-03-31T09:36:30.631Z,95961.05
2019-03-31T09:38:56.774Z,95966.84
2019-03-31T09:41:22.905Z,95969.73
2019-03-31T09:43:49.033Z,95965.42
2019-03-31T09:46:15.147Z,95960.21
2019-03-31T09:48:41.274Z,95958.06
2019-03-31T09:51:07.415Z,95959.26
2019-03-31T09:53:33.537Z,95956.14
2019-03-31T09:55:59.671Z,95961.59
2019-03-31T09:58:25.816Z,95953.45
2019-03-31T10:00:51.944Z,95949.81
2019-03-31T10:03:18.379Z,95948.38
2019-03-31T10:05:47.686Z,95946.17
2019-03-31T10:08:12.688Z,95947.22
2019-03-31T10:10:39.175Z,95943.20
2019-03-31T10:13:05.287Z,95942.98
2019-03-31T10:15:31.563Z,95939.64
2019-03-31T10:17:57.748Z,95936.60
2019-03-31T10:20:23.936Z,95926.69
2019-03-31T10:22:50.071Z,95931.06
2019-03-31T10:25:16.227Z,95928.28
2019-03-31T10:27:42.469Z,95918.05
2019-03-31T10:30:09.991Z,95920.40
2019-03-31T10:32:36.246Z,95914.97
2019-03-31T10:35:05.029Z,95915.64
2019-03-31T10:37:31.194Z,95915.91
2019-03-31T10:39:57.339Z,95918.07
2019-03-31T10:42:23.579Z,95913.24
2019-03-31T10:44:49.711Z,95913.50
2019-03-31T10:47:15.860Z,95915.13
2019-03-31T10:49:47.200Z,95916.88
2019-03-31T10:52:13.304Z,95907.50
2019-03-31T10:54:39.901Z,95913.11
2019-03-31T10:57:06.059Z,95910.77
2019-03-31T10:59:32.241Z,95905.58
2019-03-31T11:01:58.440Z,95900.71
2019-03-31T11:04:26.880Z,95903.02
2019-03-31T11:06:59.619Z,95902.84
2019-03-31T11:09:23.873Z,95901.43
2019-03-31T11:11:50.017Z,95901.00
2019-03-31T11:14:16.317Z,95897.06
2019-03-31T11:16:49.321Z,95902.07
2019-03-31T11:19:19.757Z,95892.30
2019-03-31T11:24:26.532Z,95895.09
2019-03-31T11:26:52.689Z,95883.00
2019-03-31T11:29:18.914Z,95883.22
2019-03-31T11:31:45.089Z,95883.16
2019-03-31T11:34:11.235Z,95883.22
2019-03-31T11:36:37.169Z,95881.94
2019-03-31T11:39:05.140Z,95878.48
2019-03-31T11:41:31.172Z,95882.30
2019-03-31T11:43:57.425Z,95881.27
2019-03-31T11:46:23.534Z,95880.25
2019-03-31T11:48:49.655Z,95884.42
2019-03-31T11:51:15.839Z,95879.94
2019-03-31T11:53:47.099Z,95877.20
2019-03-31T11:56:13.366Z,95881.17
2019-03-31T11:58:39.605Z,95875.06
2019-03-31T12:01:05.844Z,95879.38
2019-03-31T12:03:32.074Z,95870.94
2019-03-31T12:05:58.188Z,95866.41
2019-03-31T12:08:24.395Z,95865.62
2019-03-31T12:10:50.545Z,95861.05
2019-03-31T12:13:16.663Z,95854.13
2019-03-31T12:15:42.786Z,95853.35
2019-03-31T12:18:08.922Z,95855.20
2019-03-31T12:20:35.143Z,95862.22
2019-03-31T12:23:01.160Z,95857.68
2019-03-31T12:25:27.337Z,95858.51
2019-03-31T12:27:55.585Z,95860.45
2019-03-31T12:30:27.995Z,95857.55
2019-03-31T12:32:55.151Z,95861.87
2019-03-31T12:35:21.289Z,95850.89
2019-03-31T12:37:47.529Z,95855.13
2019-03-31T12:40:17.252Z,95852.19
2019-03-31T12:42:43.388Z,95858.38
2019-03-31T12:45:09.453Z,95852.75
2019-03-31T12:47:35.571Z,95851.06
2019-03-31T12:50:01.812Z,95854.27
2019-03-31T12:52:27.941Z,95867.97
2019-03-31T12:54:54.168Z,95855.88
2019-03-31T12:57:20.111Z,95851.85
2019-03-31T12:59:46.217Z,95851.03
2019-03-31T13:02:12.412Z,95842.17
2019-03-31T13:04:38.533Z,95841.65
2019-03-31T13:07:04.780Z,95841.91
2019-03-31T13:09:30.938Z,95833.78
2019-03-31T13:11:57.102Z,95830.80
2019-03-31T13:14:23.281Z,95830.80
2019-03-31T13:16:49.399Z,95835.42
2019-03-31T13:19:15.511Z,95830.72
2019-03-31T13:21:41.695Z,95832.91
2019-03-31T13:24:07.809Z,95827.56
2019-03-31T13:26:33.965Z,95824.06
2019-03-31T13:29:00.094Z,95824.84
2019-03-31T13:31:26.160Z,95824.87
2019-03-31T13:33:52.432Z,95823.27
2019-03-31T13:36:18.613Z,95822.75
2019-03-31T13:38:44.775Z,95812.22
2019-03-31T13:41:10.942Z,95827.73
2019-03-31T13:43:37.094Z,95816.50
2019-03-31T13:46:03.225Z,95824.23
2019-03-31T13:48:29.594Z,95818.91
2019-03-31T13:50:57.603Z,95817.05
2019-03-31T13:53:23.757Z,95818.44
2019-03-31T13:55:49.890Z,95812.00
2019-03-31T13:58:18.561Z,95804.73
2019-03-31T14:00:45.156Z,95815.16
2019-03-31T14:03:11.368Z,95818.92
2019-03-31T14:05:37.503Z,95803.88
2019-03-31T14:08:03.966Z,95812.95
2019-03-31T14:10:30.074Z,95807.08
2019-03-31T14:12:56.254Z,95807.89
2019-03-31T14:15:22.502Z,95804.70
2019-03-31T14:17:48.668Z,95810.32
2019-03-31T14:20:14.908Z,95807.08
2019-03-31T14:22:42.338Z,95809.20
2019-03-31T14:25:08.485Z,95811.05
2019-03-31T14:27:34.655Z,95812.13
2019-03-31T14:30:06.509Z,95800.05
2019-03-31T14:32:32.541Z,95809.67
2019-03-31T14:34:58.707Z,95806.73
2019-03-31T14:37:24.862Z,95809.93
2019-03-31T14:39:51.109Z,95818.75
2019-03-31T14:42:17.266Z,95819.27
2019-03-31T14:44:44.303Z,95817.88
2019-03-31T14:47:10.609Z,95819.73
2019-03-31T14:49:36.675Z,95826.90
2019-03-31T14:52:02.845Z,95823.92
2019-03-31T14:54:28.870Z,95818.52
2019-03-31T14:56:55.015Z,95817.73
2019-03-31T14:59:21.152Z,95816.61
2019-03-31T15:01:47.436Z,95812.02
2019-03-31T15:04:13.584Z,95820.58
2019-03-31T15:06:39.885Z,95820.06
2019-03-31T15:09:07.074Z,95822.44
2019-03-31T15:11:33.111Z,95820.56
2019-03-31T15:13:59.263Z,95814.39
2019-03-31T15:16:28.938Z,95816.00
2019-03-31T15:18:54.967Z,95818.38
2019-03-31T15:21:21.142Z,95817.03
2019-03-31T15:23:47.371Z,95823.92
2019-03-31T15:26:13.598Z,95816.66
2019-03-31T15:28:39.858Z,95813.69
2019-03-31T15:31:06.119Z,95821.97
2019-03-31T15:33:32.469Z,95823.50
2019-03-31T15:35:58.636Z,95821.65
2019-03-31T15:38:24.860Z,95822.98
2019-03-31T15:40:51.151Z,95826.95
2019-03-31T15:43:17.311Z,95823.42
2019-03-31T15:45:43.535Z,95827.13
2019-03-31T15:48:09.678Z,95825.71
2019-03-31T15:50:36.374Z,95834.26
2019-03-31T15:53:02.668Z,95821.59
2019-03-31T15:55:28.776Z,95824.83
2019-03-31T15:57:55.014Z,95830.95
2019-03-31T16:00:21.244Z,95837.38
2019-03-31T16:02:47.507Z,95838.91
2019-03-31T16:05:13.630Z,95834.58
2019-03-31T16:07:39.691Z,95832.42
2019-03-31T16:10:05.965Z,95839.86
2019-03-31T16:12:32.122Z,95844.33
2019-03-31T16:14:58.374Z,95844.01
2019-03-31T16:17:24.665Z,95845.53
2019-03-31T16:19:53.799Z,95844.69
2019-03-31T16:22:20.067Z,95847.31
2019-03-31T16:24:48.155Z,95844.12
2019-03-31T16:27:14.446Z,95858.00
2019-03-31T16:29:40.581Z,95854.77
2019-03-31T16:32:06.763Z,95858.45
2019-03-31T16:34:32.885Z,95855.45
2019-03-31T16:36:59.013Z,95853.28
2019-03-31T16:39:36.880Z,95852.94
2019-03-31T16:41:53.470Z,95852.86
2019-03-31T16:44:19.766Z,95860.59
2019-03-31T16:46:46.084Z,95859.56
2019-03-31T16:49:12.316Z,95862.86
2019-03-31T16:51:38.591Z,95859.92
2019-03-31T16:54:05.100Z,95857.36
2019-03-31T16:56:31.354Z,95869.19
2019-03-31T16:58:57.501Z,95864.67
2019-03-31T17:01:23.637Z,95863.53
2019-03-31T17:03:49.754Z,95864.41
2019-03-31T17:06:15.907Z,95871.73
2019-03-31T17:08:42.074Z,95874.42
2019-03-31T17:11:09.181Z,95870.91
2019-03-31T17:13:35.330Z,95872.98
2019-03-31T17:16:01.591Z,95881.20
2019-03-31T17:18:27.714Z,95878.92
2019-03-31T17:20:53.890Z,95882.28
2019-03-31T17:23:20.175Z,95884.28
2019-03-31T17:25:46.309Z,95885.14
2019-03-31T17:28:12.400Z,95883.24
2019-03-31T17:30:38.652Z,95890.81
2019-03-31T17:33:04.949Z,95885.23
2019-03-31T17:35:31.186Z,95901.80
2019-03-31T17:37:59.629Z,95895.23
2019-03-31T17:40:25.921Z,95902.92
2019-03-31T17:42:52.217Z,95905.38
2019-03-31T17:45:18.495Z,95910.84
2019-03-31T17:47:44.722Z,95910.89
2019-03-31T17:50:11.193Z,95915.30
2019-03-31T17:52:37.434Z,95914.06
2019-03-31T17:55:04.727Z,95924.05
2019-03-31T17:57:31.023Z,95928.31
2019-03-31T17:59:57.298Z,95918.98
2019-03-31T18:02:23.578Z,95928.98
2019-03-31T18:04:51.898Z,95942.46
2019-03-31T18:07:18.111Z,95941.73
2019-03-31T18:09:44.281Z,95946.16
2019-03-31T18:12:10.525Z,95948.40
2019-03-31T18:14:38.505Z,95948.94
2019-03-31T18:17:04.755Z,95952.42
2019-03-31T18:19:30.875Z,95951.63
2019-03-31T18:21:57.050Z,95947.69
2019-03-31T18:24:23.189Z,95949.19
2019-03-31T18:26:49.336Z,95967.23
2019-03-31T18:29:16.034Z,95968.19
2019-03-31T18:31:42.200Z,95970.65
2019-03-31T18:34:08.343Z,95971.17
2019-03-31T18:36:36.817Z,95974.77
2019-03-31T18:39:05.344Z,95973.02
2019-03-31T18:41:31.484Z,95977.61
2019-03-31T18:43:57.642Z,95982.92
2019-03-31T18:46:23.771Z,95983.94
2019-03-31T18:48:49.892Z,95981.91
2019-03-31T18:51:16.035Z,95987.30
2019-03-31T18:54:02.051Z,95998.50
2019-03-31T19:13:20.435Z,96012.51
2019-03-31T19:15:51.104Z,96015.92
2019-03-31T19:21:11.014Z,96023.09
2019-03-31T19:23:56.683Z,96023.66
2019-03-31T19:26:27.518Z,96022.01
2019-03-31T19:29:10.730Z,96028.75
2019-03-31T19:31:41.604Z,96024.33
2019-03-31T19:34:09.612Z,96027.53
2019-03-31T19:36:40.519Z,96035.33
2019-03-31T19:39:24.561Z,96032.34
2019-03-31T19:44:35.954Z,96043.86
2019-03-31T19:47:06.548Z,96049.36
2019-03-31T19:49:34.623Z,96042.35
2019-03-31T19:52:06.208Z,96054.23
2019-03-31T19:54:35.522Z,96050.44
2019-03-31T20:00:02.565Z,96052.92
2019-03-31T20:02:30.610Z,96059.19
2019-03-31T20:04:58.643Z,96056.25
2019-03-31T20:07:29.531Z,96061.34
2019-03-31T20:10:14.435Z,96062.61
2019-03-31T20:12:59.216Z,96068.22
2019-03-31T20:15:29.762Z,96067.69
2019-03-31T20:18:14.164Z,96066.63
2019-03-31T20:20:44.870Z,96070.02
2019-03-31T20:23:29.637Z,96081.20
2019-03-31T20:28:56.763Z,96087.80
2019-03-31T20:31:33.569Z,96078.62
2019-03-31T20:36:50.473Z,96081.77
2019-03-31T20:39:18.571Z,96082.26
2019-03-31T20:44:44.355Z,96092.61
2019-03-31T20:47:10.505Z,96089.71
2019-03-31T20:49:36.762Z,96103.45
2019-03-31T20:52:03.009Z,96104.95
2019-03-31T20:54:32.797Z,96103.35
2019-03-31T20:56:58.299Z,96117.97
2019-03-31T20:59:24.467Z,96117.53
2019-03-31T21:01:53.243Z,96116.76
2019-03-31T21:04:19.340Z,96121.00
2019-03-31T21:06:45.564Z,96126.39
2019-03-31T21:09:11.705Z,96137.13
2019-03-31T21:11:37.929Z,96142.42
2019-03-31T21:14:04.055Z,96128.09
2019-03-31T21:16:30.310Z,96135.25
2019-03-31T21:18:56.453Z,96139.54
2019-03-31T21:21:22.750Z,96135.03
2019-03-31T21:23:48.870Z,96146.45
2019-03-31T21:26:15.153Z,96146.58
2019-03-31T21:28:41.445Z,96148.69
2019-03-31T21:31:07.705Z,96151.13
2019-03-31T21:33:33.860Z,96150.34
2019-03-31T21:36:00.096Z,96165.83
2019-03-31T21:38:26.261Z,96158.70
2019-03-31T21:40:52.502Z,96164.50
2019-03-31T21:43:18.785Z,96169.39
2019-03-31T21:45:45.305Z,96159.70
2019-03-31T21:48:11.432Z,96166.66
2019-03-31T21:50:38.039Z,96171.12
2019-03-31T21:53:04.158Z,96178.88
2019-03-31T21:55:30.296Z,96180.11
2019-03-31T21:57:56.466Z,96192.95
2019-03-31T22:00:27.024Z,96182.64
2019-03-31T22:02:53.144Z,96189.47
2019-03-31T22:05:19.269Z,96187.65
2019-03-31T22:07:45.408Z,96187.83
2019-03-31T22:10:11.548Z,96189.27
2019-03-31T22:12:37.666Z,96183.77
2019-03-31T22:15:04.801Z,96189.35
2019-03-31T22:17:30.946Z,96188.65
2019-03-31T22:19:57.184Z,96184.80
2019-03-31T22:22:23.325Z,96188.15
2019-03-31T22:24:49.437Z,96189.56
2019-03-31T22:27:15.667Z,96192.70
2019-03-31T22:29:41.793Z,96188.44
2019-03-31T22:32:07.927Z,96182.23
2019-03-31T22:34:34.079Z,96191.80
2019-03-31T22:37:00.201Z,96186.70
2019-03-31T22:39:26.334Z,96190.88
2019-03-31T22:41:52.458Z,96188.84
2019-03-31T22:44:18.515Z,96197.30
2019-03-31T22:46:54.139Z,96198.45
2019-03-31T22:49:12.735Z,96217.61
2019-03-31T22:51:38.874Z,96210.02
2019-03-31T22:54:04.992Z,96205.12
2019-03-31T22:56:31.119Z,96204.13
2019-03-31T22:58:57.278Z,96202.75
2019-03-31T23:01:23.488Z,96206.69
2019-03-31T23:03:49.645Z,96204.05
2019-03-31T23:06:15.785Z,96210.58
2019-03-31T23:08:41.899Z,96217.62
2019-03-31T23:11:08.057Z,96212.27
2019-03-31T23:13:34.083Z,96216.17
2019-03-31T23:16:00.216Z,96219.98
2019-03-31T23:18:26.359Z,96225.38
2019-03-31T23:20:52.524Z,96236.03
2019-03-31T23:23:18.551Z,96234.24
2019-03-31T23:25:44.728Z,96232.29
2019-03-31T23:28:10.853Z,96230.56
2019-03-31T23:30:37.103Z,96227.50
2019-03-31T23:33:03.143Z,96229.55
2019-03-31T23:35:29.184Z,96237.97
2019-03-31T23:37:58.125Z,96236.42
2019-03-31T23:40:24.239Z,96245.54
2019-03-31T23:42:50.363Z,96253.91
2019-03-31T23:45:16.419Z,96255.98
2019-03-31T23:47:42.576Z,96257.50
2019-03-31T23:50:08.997Z,96253.11
2019-03-31T23:52:35.319Z,96255.70
2019-03-31T23:55:01.350Z,96249.09
2019-03-31T23:57:40.043Z,96256.39
